createdAt,value
2019-01-11T00:02:25.544Z,21.23
2019-01-11T00:04:55.269Z,19.07
2019-01-11T00:07:25.078Z,19.30
2019-01-11T00:09:54.886Z,21.57
2019-01-11T00:12:24.610Z,20.53
2019-01-11T00:14:54.290Z,19.80
2019-01-11T00:17:24.131Z,19.53
2019-01-11T00:19:54.083Z,20.30
2019-01-11T00:22:23.824Z,19.27
2019-01-11T00:24:53.814Z,19.83
2019-01-11T00:27:23.543Z,20.50
2019-01-11T00:29:53.225Z,21.53
2019-01-11T00:32:23.153Z,19.53
2019-01-11T00:34:53.436Z,20.63
2019-01-11T00:37:23.254Z,19.93
2019-01-11T00:39:53.176Z,19.87
2019-01-11T00:42:23.390Z,19.67
2019-01-11T00:44:53.340Z,18.17
2019-01-11T00:47:23.080Z,19.67
2019-01-11T00:49:52.929Z,18.73
2019-01-11T00:52:22.850Z,19.13
2019-01-11T00:54:52.871Z,18.47
2019-01-11T00:57:22.597Z,17.73
2019-01-11T00:59:52.286Z,16.43
2019-01-11T01:02:22.095Z,17.00
2019-01-11T01:04:52.271Z,16.37
2019-01-11T01:07:22.313Z,16.43
2019-01-11T01:09:51.942Z,15.17
2019-01-11T01:12:21.758Z,16.53
2019-01-11T01:14:51.377Z,16.67
2019-01-11T01:17:21.056Z,15.87
2019-01-11T01:19:50.767Z,16.50
2019-01-11T01:22:20.451Z,16.30
2019-01-11T01:24:50.221Z,16.77
2019-01-11T01:27:19.934Z,16.20
2019-01-11T01:29:49.554Z,17.30
2019-01-11T01:32:19.175Z,16.20
2019-01-11T01:34:49.371Z,17.17
2019-01-11T01:37:18.996Z,16.33
2019-01-11T01:39:48.615Z,16.77
2019-01-11T01:42:18.237Z,16.30
2019-01-11T01:44:48.194Z,16.47
2019-01-11T01:47:18.068Z,16.60
2019-01-11T01:49:47.754Z,16.50
2019-01-11T01:52:17.471Z,17.87
2019-01-11T01:54:47.179Z,17.73
2019-01-11T01:57:16.969Z,17.37
2019-01-11T01:59:46.620Z,17.93
2019-01-11T02:02:16.857Z,17.50
2019-01-11T02:04:46.823Z,16.40
2019-01-11T02:07:16.540Z,16.97
2019-01-11T02:09:46.250Z,17.60
2019-01-11T02:12:16.015Z,17.57
2019-01-11T02:14:45.743Z,16.90
2019-01-11T02:17:16.707Z,16.90
2019-01-11T02:19:46.570Z,19.07
2019-01-11T02:22:16.341Z,18.30
2019-01-11T02:24:46.320Z,17.37
2019-01-11T02:27:16.117Z,19.37
2019-01-11T02:29:46.433Z,20.60
2019-01-11T02:32:16.107Z,20.20
2019-01-11T02:34:46.038Z,21.57
2019-01-11T02:37:16.229Z,21.57
2019-01-11T02:39:46.158Z,20.13
2019-01-11T02:42:15.877Z,20.67
2019-01-11T02:44:45.525Z,21.33
2019-01-11T02:47:15.201Z,20.23
2019-01-11T02:49:45.222Z,22.30
2019-01-11T02:52:14.957Z,23.43
2019-01-11T02:54:44.688Z,22.57
2019-01-11T02:57:14.349Z,21.87
2019-01-11T02:59:43.990Z,21.93
2019-01-11T03:02:13.978Z,22.00
2019-01-11T03:04:43.613Z,23.07
2019-01-11T03:07:13.326Z,23.53
2019-01-11T03:09:43.574Z,24.27
2019-01-11T03:12:13.346Z,23.47
2019-01-11T03:14:43.060Z,24.10
2019-01-11T03:17:12.695Z,24.43
2019-01-11T03:19:47.786Z,23.57
2019-01-11T03:22:14.018Z,24.93
2019-01-11T03:24:43.721Z,25.17
2019-01-11T03:27:13.418Z,21.30
2019-01-11T03:29:54.991Z,24.83
2019-01-11T03:32:24.838Z,24.80
2019-01-11T03:35:10.021Z,24.57
2019-01-11T03:37:40.330Z,26.17
2019-01-11T03:40:10.760Z,24.27
2019-01-11T03:42:40.406Z,23.23
2019-01-11T03:45:11.455Z,24.87
2019-01-11T03:47:41.128Z,23.67
2019-01-11T03:50:11.572Z,23.97
2019-01-11T03:52:41.265Z,24.00
2019-01-11T03:55:12.877Z,23.80
2019-01-11T03:57:42.778Z,23.03
2019-01-11T04:00:18.322Z,23.63
2019-01-11T04:02:48.314Z,24.23
2019-01-11T04:05:18.056Z,23.40
2019-01-11T04:07:48.022Z,24.17
2019-01-11T04:10:19.798Z,22.77
2019-01-11T04:12:49.770Z,22.20
2019-01-11T04:15:20.495Z,23.80
2019-01-11T04:18:09.668Z,23.30
2019-01-11T04:20:39.661Z,22.47
2019-01-11T04:23:09.504Z,23.37
2019-01-11T04:25:41.753Z,24.47
2019-01-11T04:28:11.620Z,21.43
2019-01-11T04:30:41.336Z,22.87
2019-01-11T04:33:11.064Z,24.70
2019-01-11T04:35:40.803Z,20.93
2019-01-11T04:38:10.875Z,23.60
2019-01-11T04:40:40.550Z,23.87
2019-01-11T04:43:10.305Z,23.70
2019-01-11T04:45:40.229Z,24.03
2019-01-11T04:48:10.173Z,26.90
2019-01-11T04:50:39.881Z,22.83
2019-01-11T04:53:09.797Z,27.17
2019-01-11T04:55:39.506Z,25.97
2019-01-11T04:58:09.190Z,26.17
2019-01-11T05:00:38.858Z,24.93
2019-01-11T05:03:08.610Z,23.70
2019-01-11T05:05:38.444Z,27.13
2019-01-11T05:08:08.202Z,25.10
2019-01-11T05:10:38.106Z,23.07
2019-01-11T05:13:26.869Z,24.47
2019-01-11T05:15:56.787Z,25.33
2019-01-11T05:18:26.599Z,27.53
2019-01-11T05:20:56.515Z,28.17
2019-01-11T05:23:26.277Z,29.40
2019-01-11T05:25:56.905Z,27.80
2019-01-11T05:28:26.873Z,27.43
2019-01-11T05:30:57.614Z,28.17
2019-01-11T05:33:27.519Z,28.50
2019-01-11T05:35:57.494Z,27.13
2019-01-11T05:38:27.405Z,25.80
2019-01-11T05:40:57.385Z,28.10
2019-01-11T05:43:27.382Z,26.97
2019-01-11T05:45:57.201Z,26.17
2019-01-11T05:48:27.024Z,27.87
2019-01-11T05:50:56.761Z,29.83
2019-01-11T05:53:26.455Z,31.37
2019-01-11T05:55:57.820Z,30.10
2019-01-11T05:58:32.219Z,29.17
2019-01-11T06:01:02.287Z,27.67
2019-01-11T06:03:33.542Z,29.17
2019-01-11T06:06:03.873Z,28.97
2019-01-11T06:08:33.933Z,27.13
2019-01-11T06:11:04.053Z,30.07
2019-01-11T06:13:33.856Z,26.83
2019-01-11T06:16:04.033Z,26.50
2019-01-11T06:18:33.706Z,28.93
2019-01-11T06:21:03.574Z,29.60
2019-01-11T06:23:33.325Z,28.97
2019-01-11T06:26:03.326Z,29.70
2019-01-11T06:28:33.618Z,28.37
2019-01-11T06:31:03.368Z,27.83
2019-01-11T06:33:33.053Z,27.77
2019-01-11T06:36:04.258Z,27.47
2019-01-11T06:38:34.213Z,27.83
2019-01-11T06:41:03.864Z,24.40
2019-01-11T06:43:33.539Z,26.50
2019-01-11T06:46:03.508Z,23.17
2019-01-11T06:48:41.330Z,27.50
2019-01-11T06:51:11.199Z,26.53
2019-01-11T06:53:41.047Z,26.20
2019-01-11T06:56:10.941Z,26.77
2019-01-11T06:58:40.950Z,26.87
2019-01-11T07:01:10.915Z,24.87
2019-01-11T07:03:40.570Z,24.80
2019-01-11T07:06:10.240Z,22.93
2019-01-11T07:08:40.175Z,24.60
2019-01-11T07:11:09.880Z,23.23
2019-01-11T07:13:39.533Z,23.13
2019-01-11T07:16:09.196Z,23.50
2019-01-11T07:18:38.864Z,24.73
2019-01-11T07:21:08.538Z,25.07
2019-01-11T07:23:38.628Z,24.50
2019-01-11T07:26:08.376Z,25.83
2019-01-11T07:28:38.277Z,22.60
2019-01-11T07:31:09.611Z,26.67
2019-01-11T07:33:39.277Z,29.17
2019-01-11T07:36:40.223Z,27.67
2019-01-11T07:39:22.717Z,27.43
2019-01-11T07:41:52.737Z,28.57
2019-01-11T07:44:22.656Z,28.67
2019-01-11T07:46:52.382Z,28.43
2019-01-11T07:49:23.238Z,27.60
2019-01-11T07:51:53.359Z,30.87
2019-01-11T07:54:23.025Z,28.70
2019-01-11T07:56:53.537Z,29.60
2019-01-11T07:59:23.607Z,30.60
2019-01-11T08:01:54.452Z,30.27
2019-01-11T08:04:24.397Z,30.20
2019-01-11T08:06:54.102Z,32.43
2019-01-11T08:09:23.965Z,30.20
2019-01-11T08:11:54.163Z,29.67
2019-01-11T08:14:24.734Z,26.83
2019-01-11T08:16:54.428Z,28.67
2019-01-11T08:19:24.246Z,29.50
2019-01-11T08:21:54.042Z,24.97
2019-01-11T08:24:23.770Z,25.20
2019-01-11T08:26:53.456Z,23.63
2019-01-11T08:29:23.380Z,24.33
2019-01-11T08:31:53.086Z,23.07
2019-01-11T08:34:22.707Z,22.07
2019-01-11T08:36:52.326Z,20.13
2019-01-11T08:39:22.284Z,23.80
2019-01-11T08:41:51.896Z,21.87
2019-01-11T08:44:21.806Z,19.03
2019-01-11T08:46:51.749Z,20.47
2019-01-11T08:49:21.456Z,19.37
2019-01-11T08:51:51.081Z,19.07
2019-01-11T08:54:20.697Z,16.20
2019-01-11T08:56:50.352Z,17.43
2019-01-11T08:59:20.074Z,15.87
2019-01-11T09:01:50.183Z,15.63
2019-01-11T09:04:19.897Z,13.80
2019-01-11T09:06:49.825Z,13.73
2019-01-11T09:09:19.453Z,13.93
2019-01-11T09:11:49.425Z,13.03
2019-01-11T09:14:37.181Z,10.80
2019-01-11T09:17:06.872Z,13.03
2019-01-11T09:19:36.505Z,10.67
2019-01-11T09:22:06.413Z,10.23
2019-01-11T09:24:36.038Z,8.73
2019-01-11T09:27:05.717Z,10.70
2019-01-11T09:29:35.350Z,10.00
2019-01-11T09:32:05.205Z,9.37
2019-01-11T09:34:34.830Z,9.73
2019-01-11T09:37:04.520Z,8.53
2019-01-11T09:39:34.141Z,8.00
2019-01-11T09:42:04.002Z,8.70
2019-01-11T09:44:33.942Z,8.93
2019-01-11T09:47:03.698Z,8.50
2019-01-11T09:49:33.430Z,8.00
2019-01-11T09:52:03.364Z,8.63
2019-01-11T09:54:33.497Z,8.57
2019-01-11T09:57:04.334Z,8.37
2019-01-11T09:59:35.187Z,7.83
2019-01-11T10:02:35.273Z,7.27
2019-01-11T10:05:07.038Z,7.40
2019-01-11T10:07:37.624Z,6.93
2019-01-11T10:10:10.297Z,6.67
2019-01-11T10:12:40.220Z,7.27
2019-01-11T10:15:11.057Z,6.93
2019-01-11T10:17:40.950Z,6.53
2019-01-11T10:20:11.382Z,6.27
2019-01-11T10:22:41.546Z,5.23
2019-01-11T10:25:11.954Z,5.50
2019-01-11T10:27:41.860Z,5.23
2019-01-11T10:30:14.308Z,5.87
2019-01-11T10:32:44.920Z,7.27
2019-01-11T10:35:14.978Z,6.27
2019-01-11T10:37:44.781Z,4.37
2019-01-11T10:40:15.774Z,4.90
2019-01-11T10:42:45.728Z,5.17
2019-01-11T10:45:21.332Z,5.10
2019-01-11T10:47:53.274Z,4.70
2019-01-11T10:50:23.497Z,5.00
2019-01-11T10:52:53.346Z,3.87
2019-01-11T10:55:24.207Z,3.70
2019-01-11T10:57:54.042Z,3.90
2019-01-11T11:00:25.824Z,2.90
2019-01-11T11:02:56.828Z,3.10
2019-01-11T11:05:27.127Z,3.40
2019-01-11T11:07:57.404Z,2.77
2019-01-11T11:10:27.155Z,2.90
2019-01-11T11:12:56.754Z,2.90
2019-01-11T11:15:26.917Z,2.73
2019-01-11T11:17:56.924Z,2.50
2019-01-11T11:20:26.861Z,2.40
2019-01-11T11:22:57.202Z,2.70
2019-01-11T11:25:26.939Z,2.37
2019-01-11T11:27:56.552Z,2.50
2019-01-11T11:30:26.165Z,2.20
2019-01-11T11:32:56.691Z,1.47
2019-01-11T11:35:27.785Z,1.80
2019-01-11T11:37:58.472Z,1.90
2019-01-11T11:40:29.913Z,2.07
2019-01-11T11:42:59.709Z,2.00
2019-01-11T11:45:29.418Z,1.93
2019-01-11T11:47:59.093Z,2.40
2019-01-11T11:50:28.880Z,2.27
2019-01-11T11:52:59.247Z,2.20
2019-01-11T11:55:28.961Z,1.63
2019-01-11T11:57:58.568Z,1.80
2019-01-11T12:00:28.543Z,2.30
2019-01-11T12:02:58.167Z,1.90
2019-01-11T12:05:28.092Z,1.70
2019-01-11T12:07:58.537Z,1.70
2019-01-11T12:10:28.220Z,1.97
2019-01-11T12:12:57.851Z,1.70
2019-01-11T12:15:27.549Z,2.03
2019-01-11T12:17:57.159Z,1.70
2019-01-11T12:20:30.248Z,1.43
2019-01-11T12:22:59.968Z,1.43
2019-01-11T12:25:29.657Z,2.00
2019-01-11T12:27:59.271Z,1.70
2019-01-11T12:30:28.872Z,1.73
2019-01-11T12:32:58.493Z,1.90
2019-01-11T12:35:28.225Z,1.90
2019-01-11T12:37:57.852Z,2.00
2019-01-11T12:40:27.469Z,1.80
2019-01-11T12:42:57.152Z,2.10
2019-01-11T12:45:26.778Z,1.93
2019-01-11T12:47:56.652Z,1.80
2019-01-11T12:50:27.327Z,2.30
2019-01-11T12:52:57.337Z,1.90
2019-01-11T12:55:27.186Z,2.00
2019-01-11T12:57:57.038Z,1.80
2019-01-11T13:00:26.712Z,2.27
2019-01-11T13:02:56.364Z,1.97
2019-01-11T13:05:26.034Z,2.00
2019-01-11T13:07:55.730Z,2.10
2019-01-11T13:10:25.346Z,2.47
2019-01-11T13:12:55.029Z,2.30
2019-01-11T13:15:25.209Z,2.30
2019-01-11T13:17:55.145Z,2.30
2019-01-11T13:20:24.882Z,2.77
2019-01-11T13:22:54.597Z,2.57
2019-01-11T13:25:24.286Z,1.90
2019-01-11T13:27:54.124Z,2.27
2019-01-11T13:30:24.143Z,2.67
2019-01-11T13:32:53.845Z,1.93
2019-01-11T13:35:23.463Z,1.60
2019-01-11T13:37:53.307Z,1.70
2019-01-11T13:40:24.637Z,1.63
2019-01-11T13:42:55.022Z,1.90
2019-01-11T13:45:24.776Z,2.00
2019-01-11T13:47:55.497Z,2.13
2019-01-11T13:50:34.746Z,2.10
2019-01-11T13:53:05.452Z,2.20
2019-01-11T13:55:35.072Z,2.80
2019-01-11T13:58:05.925Z,2.30
2019-01-11T14:00:36.029Z,2.57
2019-01-11T14:03:06.565Z,2.47
2019-01-11T14:05:36.734Z,2.30
2019-01-11T14:08:06.491Z,2.23
2019-01-11T14:10:36.370Z,2.50
2019-01-11T14:13:05.985Z,2.43
2019-01-11T14:15:35.950Z,2.90
2019-01-11T14:18:06.712Z,2.67
2019-01-11T14:20:36.908Z,2.30
2019-01-11T14:23:07.487Z,3.20
2019-01-11T14:25:37.148Z,3.00
2019-01-11T14:28:06.765Z,2.70
2019-01-11T14:30:36.457Z,3.10
2019-01-11T14:33:06.142Z,2.77
2019-01-11T14:35:36.040Z,4.83
2019-01-11T14:38:06.067Z,3.80
2019-01-11T14:40:35.687Z,3.70
2019-01-11T14:43:05.541Z,3.63
2019-01-11T14:45:35.229Z,4.23
2019-01-11T14:48:05.021Z,3.53
2019-01-11T14:50:35.076Z,4.17
2019-01-11T14:53:04.773Z,3.13
2019-01-11T14:55:34.394Z,3.70
2019-01-11T14:58:04.249Z,4.40
2019-01-11T15:00:33.941Z,3.60
2019-01-11T15:03:03.629Z,3.80
2019-01-11T15:05:33.266Z,4.73
2019-01-11T15:08:02.944Z,3.90
2019-01-11T15:10:32.810Z,3.80
2019-01-11T15:13:02.505Z,4.10
2019-01-11T15:15:32.112Z,3.90
2019-01-11T15:18:01.742Z,4.07
2019-01-11T15:20:31.356Z,5.53
2019-01-11T15:23:01.274Z,4.30
2019-01-11T15:25:31.185Z,4.40
2019-01-11T15:28:00.800Z,4.90
2019-01-11T15:30:30.668Z,4.77
2019-01-11T15:33:00.569Z,3.80
2019-01-11T15:35:30.172Z,4.40
2019-01-11T15:37:59.798Z,5.53
2019-01-11T15:40:36.236Z,4.23
2019-01-11T15:43:02.198Z,4.00
2019-01-11T15:45:32.108Z,5.70
2019-01-11T15:48:01.985Z,5.67
2019-01-11T15:50:56.020Z,4.17
2019-01-11T15:53:25.664Z,6.90
2019-01-11T15:56:00.461Z,4.57
2019-01-11T15:58:30.089Z,4.73
2019-01-11T16:00:59.766Z,5.93
2019-01-11T16:03:29.677Z,4.87
2019-01-11T16:06:37.778Z,5.50
2019-01-11T16:10:03.790Z,4.83
2019-01-11T16:12:41.733Z,5.60
2019-01-11T16:15:42.081Z,4.77
2019-01-11T16:18:16.497Z,5.03
2019-01-11T16:20:46.162Z,5.27
2019-01-11T16:23:15.916Z,5.60
2019-01-11T16:25:45.529Z,6.23
2019-01-11T16:28:15.210Z,5.77
2019-01-11T16:30:44.860Z,4.90
2019-01-11T16:33:14.476Z,5.30
2019-01-11T16:35:44.185Z,6.20
2019-01-11T16:38:13.800Z,5.53
2019-01-11T16:40:43.480Z,4.80
2019-01-11T16:43:13.085Z,4.77
2019-01-11T16:45:43.349Z,5.40
2019-01-11T16:48:14.037Z,5.67
2019-01-11T16:50:43.684Z,5.60
2019-01-11T16:53:13.545Z,6.07
2019-01-11T16:55:43.174Z,6.47
2019-01-11T16:58:12.782Z,6.40
2019-01-11T17:00:42.676Z,6.60
2019-01-11T17:03:12.592Z,5.23
2019-01-11T17:05:42.291Z,6.70
2019-01-11T17:08:11.913Z,5.70
2019-01-11T17:10:41.534Z,6.07
2019-01-11T17:13:11.140Z,5.40
2019-01-11T17:15:40.766Z,6.90
2019-01-11T17:18:10.390Z,6.17
2019-01-11T17:20:40.341Z,7.33
2019-01-11T17:23:09.944Z,6.30
2019-01-11T17:25:39.574Z,5.80
2019-01-11T17:28:09.190Z,6.93
2019-01-11T17:30:39.620Z,6.37
2019-01-11T17:33:09.497Z,6.47
2019-01-11T17:35:39.117Z,6.57
2019-01-11T17:38:09.026Z,5.97
2019-01-11T17:40:38.876Z,6.60
2019-01-11T17:43:08.636Z,5.70
2019-01-11T17:45:39.457Z,7.10
2019-01-11T17:48:09.177Z,6.30
2019-01-11T17:50:38.885Z,6.30
2019-01-11T17:53:08.489Z,6.23
2019-01-11T17:55:38.122Z,7.80
2019-01-11T17:58:07.921Z,8.03
2019-01-11T18:00:37.605Z,6.90
2019-01-11T18:03:07.824Z,7.33
2019-01-11T18:05:38.473Z,6.80
2019-01-11T18:08:08.369Z,8.60
2019-01-11T18:10:37.990Z,7.37
2019-01-11T18:13:07.613Z,8.40
2019-01-11T18:15:37.278Z,6.60
2019-01-11T18:18:07.142Z,7.60
2019-01-11T18:20:36.765Z,9.13
2019-01-11T18:23:06.982Z,5.97
2019-01-11T18:25:37.378Z,8.73
2019-01-11T18:28:06.994Z,7.07
2019-01-11T18:30:36.675Z,7.13
2019-01-11T18:33:06.460Z,7.27
2019-01-11T18:35:36.081Z,7.90
2019-01-11T18:38:05.952Z,7.50
2019-01-11T18:40:35.825Z,7.03
2019-01-11T18:43:05.696Z,7.77
2019-01-11T18:45:35.594Z,8.43
2019-01-11T18:48:05.582Z,8.77
2019-01-11T18:50:35.201Z,8.60
2019-01-11T18:53:04.956Z,8.07
2019-01-11T18:55:34.569Z,8.47
2019-01-11T18:58:04.477Z,8.80
2019-01-11T19:00:34.093Z,8.83
2019-01-11T19:03:03.789Z,7.80
2019-01-11T19:05:33.490Z,7.23
2019-01-11T19:08:03.403Z,10.33
2019-01-11T19:10:33.012Z,7.30
2019-01-11T19:13:02.628Z,8.10
2019-01-11T19:15:32.247Z,8.67
2019-01-11T19:18:01.861Z,7.20
2019-01-11T19:20:32.560Z,7.30
2019-01-11T19:23:03.104Z,7.77
2019-01-11T19:25:32.709Z,8.83
2019-01-11T19:28:02.434Z,7.70
2019-01-11T19:30:32.101Z,8.20
2019-01-11T19:33:01.716Z,7.47
2019-01-11T19:35:31.738Z,9.53
2019-01-11T19:38:01.788Z,8.40
2019-01-11T19:40:31.418Z,7.73
2019-01-11T19:43:01.293Z,8.30
2019-01-11T19:45:30.964Z,6.73
2019-01-11T19:48:00.642Z,8.30
2019-01-11T19:50:30.394Z,8.23
2019-01-11T19:53:00.548Z,7.40
2019-01-11T19:55:30.175Z,8.43
2019-01-11T19:57:59.779Z,9.33
2019-01-11T20:00:29.805Z,9.03
2019-01-11T20:03:00.117Z,9.50
2019-01-11T20:05:29.981Z,7.97
2019-01-11T20:07:59.665Z,7.50
2019-01-11T20:10:33.631Z,7.57
2019-01-11T20:13:03.660Z,6.20
2019-01-11T20:15:33.789Z,6.80
2019-01-11T20:18:04.597Z,7.90
2019-01-11T20:20:34.284Z,7.70
2019-01-11T20:23:04.555Z,9.43
2019-01-11T20:25:34.503Z,7.27
2019-01-11T20:28:04.259Z,8.83
2019-01-11T20:30:34.260Z,7.93
2019-01-11T20:33:04.380Z,7.80
2019-01-11T20:35:34.064Z,10.13
2019-01-11T20:38:04.245Z,9.03
2019-01-11T20:40:33.896Z,9.30
2019-01-11T20:43:04.296Z,7.80
2019-01-11T20:45:33.953Z,8.90
2019-01-11T20:48:03.633Z,8.00
2019-01-11T20:50:33.357Z,7.47
2019-01-11T20:53:03.275Z,8.00
2019-01-11T20:55:32.877Z,8.47
2019-01-11T20:58:02.569Z,7.53
2019-01-11T21:00:35.073Z,7.57
2019-01-11T21:03:07.005Z,7.23
2019-01-11T21:05:36.866Z,6.87
2019-01-11T21:08:06.809Z,7.07
2019-01-11T21:10:36.569Z,6.97
2019-01-11T21:13:06.438Z,7.40
2019-01-11T21:15:36.112Z,7.50
2019-01-11T21:18:06.246Z,7.87
2019-01-11T21:20:35.865Z,7.40
2019-01-11T21:23:05.787Z,7.50
2019-01-11T21:25:35.475Z,7.23
2019-01-11T21:28:05.248Z,7.10
2019-01-11T21:30:35.276Z,7.63
2019-01-11T21:33:05.141Z,7.47
2019-01-11T21:35:35.150Z,6.27
2019-01-11T21:38:04.945Z,7.90
2019-01-11T21:40:34.586Z,7.60
2019-01-11T21:43:04.529Z,8.33
2019-01-11T21:45:34.478Z,7.13
2019-01-11T21:48:04.646Z,6.57
2019-01-11T21:50:34.254Z,7.37
2019-01-11T21:53:04.311Z,6.80
2019-01-11T21:55:34.330Z,6.60
2019-01-11T21:58:04.597Z,7.43
2019-01-11T22:00:46.210Z,7.27
2019-01-11T22:03:17.693Z,7.23
2019-01-11T22:05:47.625Z,7.33
2019-01-11T22:08:17.498Z,7.07
2019-01-11T22:10:47.166Z,7.40
2019-01-11T22:13:17.134Z,7.40
2019-01-11T22:15:46.831Z,7.20
2019-01-11T22:18:16.593Z,8.10
2019-01-11T22:20:46.212Z,7.37
2019-01-11T22:23:15.909Z,7.53
2019-01-11T22:25:45.690Z,7.87
2019-01-11T22:28:15.574Z,6.80
2019-01-11T22:30:45.486Z,6.50
2019-01-11T22:33:15.441Z,6.70
2019-01-11T22:35:46.296Z,7.57
2019-01-11T22:38:16.048Z,6.53
2019-01-11T22:40:45.673Z,6.23
2019-01-11T22:43:15.273Z,7.10
2019-01-11T22:45:45.010Z,6.50
2019-01-11T22:48:15.265Z,7.00
2019-01-11T22:50:44.877Z,6.33
2019-01-11T22:53:14.876Z,7.07
2019-01-11T22:55:45.570Z,6.07
2019-01-11T22:58:15.182Z,6.97
2019-01-11T23:01:14.390Z,6.80
2019-01-11T23:03:47.546Z,5.97
2019-01-11T23:06:46.584Z,5.77
2019-01-11T23:09:17.999Z,6.50
2019-01-11T23:12:09.215Z,6.00
2019-01-11T23:14:38.828Z,6.13
2019-01-11T23:17:20.516Z,6.23
2019-01-11T23:19:50.405Z,5.80
2019-01-11T23:22:20.256Z,6.30
2019-01-11T23:24:49.973Z,6.63
2019-01-11T23:27:19.854Z,6.27
2019-01-11T23:29:50.058Z,5.93
2019-01-11T23:32:19.685Z,6.97
2019-01-11T23:34:49.360Z,6.33
2019-01-11T23:37:19.024Z,6.97
2019-01-11T23:39:48.758Z,6.43
2019-01-11T23:42:18.372Z,6.33
2019-01-11T23:44:47.982Z,6.20
2019-01-11T23:47:17.597Z,5.90
2019-01-11T23:49:47.292Z,6.03
2019-01-11T23:52:16.912Z,6.07
2019-01-11T23:54:46.537Z,6.17
2019-01-11T23:57:16.155Z,6.70
2019-01-11T23:59:45.766Z,6.03
